Time;durP1;ratioP1;P1;durP2;ratioP2;P2;SDS_P1;SDS_P2;PMS_P1;PMS_P2;Temp;Humidity;BMP_temperature;BMP_pressure;BME280_temperature;BME280_humidity;BME280_pressure;Samples;Min_cycle;Max_cycle;Signal;HPM_P1;HPM_P2
2023/09/27 00:00:01;;;;;;;19.45;5.30;;;;;;;;;;5078810;28;20404;-80
2023/09/27 00:02:37;;;;;;;20.23;5.10;;;;;;;;;;5080513;28;20507;-80
2023/09/27 00:05:06;;;;;;;20.02;5.53;;;;;;;;;;5073474;28;20461;-80
2023/09/27 00:07:34;;;;;;;18.50;5.70;;;;;;;;;;5067823;28;20611;-80
2023/09/27 00:10:01;;;;;;;19.50;5.88;;;;;;;;;;5070268;28;20487;-80
2023/09/27 00:12:30;;;;;;;20.05;5.70;;;;;;;;;;5096091;28;20645;-80
2023/09/27 00:14:56;;;;;;;20.17;5.80;;;;;;;;;;5075632;28;20500;-80
2023/09/27 00:17:23;;;;;;;19.95;5.53;;;;;;;;;;5071855;28;20413;-80
2023/09/27 00:19:50;;;;;;;19.60;5.80;;;;;;;;;;5074972;28;20419;-80
2023/09/27 00:22:16;;;;;;;19.10;5.68;;;;;;;;;;5064915;28;20407;-80
2023/09/27 00:24:43;;;;;;;19.73;5.72;;;;;;;;;;5080572;28;20939;-80
2023/09/27 00:27:10;;;;;;;20.52;6.25;;;;;;;;;;5069321;28;20401;-80
2023/09/27 00:29:38;;;;;;;19.98;6.10;;;;;;;;;;5063086;28;20406;-80
2023/09/27 00:32:05;;;;;;;18.85;5.47;;;;;;;;;;5065945;28;20418;-80
2023/09/27 00:34:32;;;;;;;18.63;5.60;;;;;;;;;;5074126;28;20418;-80
2023/09/27 00:36:58;;;;;;;20.13;5.22;;;;;;;;;;5081185;28;20495;-80
2023/09/27 00:39:25;;;;;;;18.77;5.55;;;;;;;;;;5069299;28;20512;-80
2023/09/27 00:41:51;;;;;;;18.88;4.88;;;;;;;;;;5057012;28;20420;-80
2023/09/27 00:44:18;;;;;;;17.90;4.80;;;;;;;;;;5073666;28;20493;-79
2023/09/27 00:46:46;;;;;;;20.40;5.60;;;;;;;;;;5067591;28;20413;-80
2023/09/27 00:49:14;;;;;;;17.85;4.80;;;;;;;;;;5075902;28;20411;-79
2023/09/27 00:51:46;;;;;;;19.30;5.47;;;;;;;;;;5070951;28;20414;-80
2023/09/27 00:54:13;;;;;;;18.77;5.38;;;;;;;;;;5067621;28;20455;-78
2023/09/27 00:56:40;;;;;;;18.65;4.97;;;;;;;;;;5071226;28;20944;-80
2023/09/27 00:59:07;;;;;;;18.55;5.10;;;;;;;;;;5071114;28;20413;-80
2023/09/27 01:01:34;;;;;;;18.23;4.95;;;;;;;;;;5072782;28;20892;-80
2023/09/27 01:04:02;;;;;;;19.58;5.88;;;;;;;;;;5073473;28;20426;-80
2023/09/27 01:06:30;;;;;;;18.58;5.30;;;;;;;;;;5074293;28;20492;-79
2023/09/27 01:08:57;;;;;;;18.70;5.00;;;;;;;;;;5075864;28;20438;-79
2023/09/27 01:11:24;;;;;;;20.88;5.60;;;;;;;;;;5078108;28;20398;-79
2023/09/27 01:13:51;;;;;;;18.48;4.85;;;;;;;;;;5074423;28;20409;-79
2023/09/27 01:16:18;;;;;;;19.42;5.60;;;;;;;;;;5064204;28;20423;-80
2023/09/27 01:18:45;;;;;;;18.55;5.18;;;;;;;;;;5076320;28;20915;-80
2023/09/27 01:21:13;;;;;;;19.27;5.90;;;;;;;;;;5078884;28;20443;-80
2023/09/27 01:23:41;;;;;;;19.88;6.20;;;;;;;;;;5077194;28;20496;-79
2023/09/27 01:26:08;;;;;;;19.40;5.50;;;;;;;;;;5083776;28;20404;-79
2023/09/27 01:28:36;;;;;;;19.60;5.82;;;;;;;;;;5075132;28;20481;-80
2023/09/27 01:31:02;;;;;;;19.27;5.80;;;;;;;;;;5050830;28;21030;-81
2023/09/27 01:33:29;;;;;;;19.10;5.95;;;;;;;;;;5090916;28;20425;-79
2023/09/27 01:35:57;;;;;;;19.45;5.22;;;;;;;;;;5078198;28;20422;-80
2023/09/27 01:38:24;;;;;;;19.95;5.80;;;;;;;;;;5067850;28;20419;-78
2023/09/27 01:40:52;;;;;;;20.27;5.87;;;;;;;;;;5080259;28;20406;-79
2023/09/27 01:43:18;;;;;;;18.83;5.00;;;;;;;;;;5067507;28;21246;-80
2023/09/27 01:45:45;;;;;;;20.23;5.37;;;;;;;;;;5077409;28;20399;-79
2023/09/27 01:48:12;;;;;;;20.42;6.32;;;;;;;;;;5079049;28;20400;-80
2023/09/27 01:50:39;;;;;;;21.08;6.75;;;;;;;;;;5076328;28;20418;-79
2023/09/27 01:53:05;;;;;;;21.83;6.53;;;;;;;;;;5075127;28;20454;-80
2023/09/27 01:55:33;;;;;;;20.90;5.90;;;;;;;;;;5074816;28;21114;-80
2023/09/27 01:58:03;;;;;;;18.40;5.28;;;;;;;;;;5074732;28;20959;-80
2023/09/27 02:00:29;;;;;;;19.10;5.70;;;;;;;;;;5079979;28;20418;-80
2023/09/27 02:02:57;;;;;;;19.48;5.40;;;;;;;;;;5070548;28;20467;-79
2023/09/27 02:05:25;;;;;;;19.58;6.13;;;;;;;;;;5071300;28;20908;-81
2023/09/27 02:07:52;;;;;;;24.45;5.53;;;;;;;;;;5077095;28;20548;-79
2023/09/27 02:10:20;;;;;;;19.48;5.78;;;;;;;;;;5077783;28;20407;-81
2023/09/27 02:12:46;;;;;;;20.73;6.30;;;;;;;;;;5065244;28;20420;-81
2023/09/27 02:15:15;;;;;;;19.30;5.57;;;;;;;;;;5072947;28;20420;-81
2023/09/27 02:17:42;;;;;;;20.63;6.60;;;;;;;;;;5072156;28;20461;-78
2023/09/27 02:20:10;;;;;;;22.73;6.05;;;;;;;;;;5070920;28;20510;-80
2023/09/27 02:22:37;;;;;;;18.17;4.93;;;;;;;;;;5087620;28;20762;-81
2023/09/27 02:25:09;;;;;;;20.13;6.50;;;;;;;;;;5062269;28;20530;-80
2023/09/27 02:27:35;;;;;;;20.90;6.30;;;;;;;;;;5063141;28;21162;-80
2023/09/27 02:30:03;;;;;;;19.52;5.88;;;;;;;;;;5060441;28;20462;-79
2023/09/27 02:32:31;;;;;;;20.42;6.07;;;;;;;;;;5053729;28;20460;-80
2023/09/27 02:34:57;;;;;;;20.75;5.93;;;;;;;;;;5077367;28;20904;-80
2023/09/27 02:37:24;;;;;;;21.23;5.50;;;;;;;;;;5075877;28;20888;-78
2023/09/27 02:39:51;;;;;;;20.13;6.40;;;;;;;;;;5071713;28;20409;-80
2023/09/27 02:42:17;;;;;;;19.40;5.68;;;;;;;;;;5074707;28;20908;-80
2023/09/27 02:44:44;;;;;;;20.60;6.15;;;;;;;;;;5081191;28;20899;-82
2023/09/27 02:47:10;;;;;;;22.38;6.32;;;;;;;;;;5057849;28;20466;-80
2023/09/27 02:49:40;;;;;;;20.92;6.75;;;;;;;;;;5078668;28;20936;-80
2023/09/27 02:52:07;;;;;;;21.30;6.80;;;;;;;;;;5093004;28;20414;-80
2023/09/27 02:54:34;;;;;;;21.55;6.95;;;;;;;;;;5081406;28;20406;-80
2023/09/27 02:57:00;;;;;;;19.80;6.57;;;;;;;;;;5079367;28;20467;-80
2023/09/27 02:59:27;;;;;;;22.40;7.80;;;;;;;;;;5059301;28;20412;-80
2023/09/27 03:01:54;;;;;;;23.13;7.88;;;;;;;;;;5058107;28;20417;-79
2023/09/27 03:04:21;;;;;;;25.67;7.75;;;;;;;;;;5075842;28;20402;-80
2023/09/27 03:06:49;;;;;;;22.90;8.20;;;;;;;;;;5073520;28;20456;-79
2023/09/27 03:09:16;;;;;;;25.33;8.30;;;;;;;;;;5076773;28;20484;-79
2023/09/27 03:11:43;;;;;;;24.27;8.60;;;;;;;;;;5083175;28;20497;-80
2023/09/27 03:14:09;;;;;;;25.92;8.18;;;;;;;;;;5063994;28;20993;-80
2023/09/27 03:16:37;;;;;;;23.83;7.38;;;;;;;;;;5058867;28;20421;-80
2023/09/27 03:19:04;;;;;;;23.70;7.80;;;;;;;;;;5067782;28;20407;-79
2023/09/27 03:21:31;;;;;;;21.67;7.40;;;;;;;;;;5079210;28;20457;-78
2023/09/27 03:23:59;;;;;;;27.60;7.65;;;;;;;;;;5084835;28;20424;-80
2023/09/27 03:26:26;;;;;;;23.57;8.77;;;;;;;;;;5069011;28;20409;-80
2023/09/27 03:28:53;;;;;;;21.98;7.72;;;;;;;;;;5067019;28;20805;-79
2023/09/27 03:31:20;;;;;;;22.00;7.50;;;;;;;;;;5063053;28;20882;-79
2023/09/27 03:33:47;;;;;;;22.08;7.85;;;;;;;;;;5078818;28;20762;-80
2023/09/27 03:36:14;;;;;;;25.05;8.20;;;;;;;;;;5077696;28;20449;-80
2023/09/27 03:38:41;;;;;;;22.35;8.35;;;;;;;;;;5052728;28;20764;-80
2023/09/27 03:41:11;;;;;;;23.88;8.60;;;;;;;;;;5078033;28;20424;-81
2023/09/27 03:43:39;;;;;;;23.17;8.13;;;;;;;;;;5079965;28;20410;-80
2023/09/27 03:46:05;;;;;;;23.50;8.13;;;;;;;;;;5077205;28;20402;-80
2023/09/27 03:48:33;;;;;;;24.73;8.20;;;;;;;;;;5065696;28;20415;-80
2023/09/27 03:51:00;;;;;;;22.63;8.13;;;;;;;;;;5065044;28;20464;-79
2023/09/27 03:53:28;;;;;;;23.50;8.27;;;;;;;;;;5074909;28;20417;-80
2023/09/27 03:55:55;;;;;;;25.13;8.90;;;;;;;;;;5072771;28;20451;-80
2023/09/27 03:58:23;;;;;;;22.65;7.90;;;;;;;;;;5075898;28;20420;-80
2023/09/27 04:00:50;;;;;;;21.35;7.53;;;;;;;;;;5070460;28;20435;-79
2023/09/27 04:03:17;;;;;;;21.35;7.00;;;;;;;;;;5069365;28;20406;-80
2023/09/27 04:05:45;;;;;;;22.40;7.95;;;;;;;;;;5062716;28;20469;-80
2023/09/27 04:08:11;;;;;;;22.50;7.60;;;;;;;;;;5062499;28;20414;-79
2023/09/27 04:10:38;;;;;;;26.08;7.80;;;;;;;;;;5071334;28;20793;-80
2023/09/27 04:13:05;;;;;;;22.95;8.10;;;;;;;;;;5068435;28;20458;-80
2023/09/27 04:15:35;;;;;;;25.15;9.05;;;;;;;;;;5074608;28;20422;-78
2023/09/27 04:18:02;;;;;;;23.60;9.00;;;;;;;;;;5074982;28;20777;-80
2023/09/27 04:20:28;;;;;;;24.00;9.23;;;;;;;;;;5087496;28;20439;-79
2023/09/27 04:22:56;;;;;;;24.75;9.48;;;;;;;;;;5075672;28;20479;-79
2023/09/27 04:25:22;;;;;;;24.00;9.25;;;;;;;;;;5072111;28;20400;-78
2023/09/27 04:27:49;;;;;;;23.77;9.10;;;;;;;;;;5068073;28;20413;-80
2023/09/27 04:30:19;;;;;;;23.88;8.88;;;;;;;;;;5082594;28;20406;-78
2023/09/27 04:32:50;;;;;;;24.33;8.90;;;;;;;;;;5071559;28;20405;-80
2023/09/27 04:35:17;;;;;;;25.00;7.95;;;;;;;;;;5072988;28;20396;-78
2023/09/27 04:37:44;;;;;;;23.58;7.72;;;;;;;;;;5076655;28;20404;-80
2023/09/27 04:40:12;;;;;;;22.70;8.20;;;;;;;;;;5074403;28;20416;-80
2023/09/27 04:42:38;;;;;;;25.90;9.60;;;;;;;;;;5070585;28;20759;-80
2023/09/27 04:45:06;;;;;;;25.00;9.18;;;;;;;;;;5073310;28;20492;-79
2023/09/27 04:47:33;;;;;;;24.75;9.13;;;;;;;;;;5076315;28;20412;-80
2023/09/27 04:50:01;;;;;;;24.52;9.20;;;;;;;;;;5072144;28;20409;-78
2023/09/27 04:52:27;;;;;;;23.02;7.95;;;;;;;;;;5078815;28;20405;-79
2023/09/27 04:54:55;;;;;;;23.45;7.88;;;;;;;;;;5069286;28;20455;-79
2023/09/27 04:57:22;;;;;;;21.02;7.40;;;;;;;;;;5072723;28;20455;-80
2023/09/27 04:59:48;;;;;;;22.08;8.02;;;;;;;;;;5076878;28;20442;-80
2023/09/27 05:02:16;;;;;;;21.55;7.43;;;;;;;;;;5074551;28;20775;-81
2023/09/27 05:04:43;;;;;;;22.52;8.00;;;;;;;;;;5059125;28;20470;-79
2023/09/27 05:07:11;;;;;;;21.73;7.40;;;;;;;;;;5065540;28;20400;-80
2023/09/27 05:09:37;;;;;;;23.75;8.13;;;;;;;;;;5077937;28;20405;-79
2023/09/27 05:12:04;;;;;;;22.95;8.10;;;;;;;;;;5076563;28;20404;-79
2023/09/27 05:14:31;;;;;;;22.33;8.30;;;;;;;;;;5072412;28;20512;-80
2023/09/27 05:16:58;;;;;;;23.73;7.63;;;;;;;;;;5067430;28;20827;-79
2023/09/27 05:19:25;;;;;;;23.58;8.60;;;;;;;;;;5079689;28;20405;-79
2023/09/27 05:21:52;;;;;;;24.88;8.52;;;;;;;;;;5081100;28;20406;-82
2023/09/27 05:24:20;;;;;;;22.00;8.20;;;;;;;;;;5074488;28;20520;-79
2023/09/27 05:26:47;;;;;;;22.73;8.52;;;;;;;;;;5073253;28;20971;-78
2023/09/27 05:29:13;;;;;;;23.20;8.00;;;;;;;;;;5074613;28;20888;-79
2023/09/27 05:31:40;;;;;;;22.85;8.15;;;;;;;;;;5078432;28;20413;-79
2023/09/27 05:34:07;;;;;;;24.33;9.02;;;;;;;;;;5079979;28;20444;-77
2023/09/27 05:36:34;;;;;;;24.05;9.10;;;;;;;;;;5060040;28;20452;-78
2023/09/27 05:39:02;;;;;;;25.52;9.15;;;;;;;;;;5075340;28;20418;-77
2023/09/27 05:41:30;;;;;;;25.52;9.85;;;;;;;;;;5075931;28;20419;-80
2023/09/27 05:43:56;;;;;;;24.85;9.30;;;;;;;;;;5082244;28;20492;-80
2023/09/27 05:46:26;;;;;;;25.47;9.03;;;;;;;;;;5073331;28;20404;-79
2023/09/27 05:48:53;;;;;;;23.17;8.50;;;;;;;;;;5056692;28;20455;-80
2023/09/27 05:51:20;;;;;;;23.02;8.95;;;;;;;;;;5062429;28;20410;-77
2023/09/27 05:53:51;;;;;;;23.70;8.70;;;;;;;;;;5072623;28;20402;-77
2023/09/27 05:56:18;;;;;;;24.83;9.40;;;;;;;;;;5074430;28;20425;-79
2023/09/27 05:58:46;;;;;;;24.47;8.83;;;;;;;;;;5059404;28;20413;-79
2023/09/27 06:01:13;;;;;;;22.73;8.57;;;;;;;;;;5073704;28;20418;-80
2023/09/27 06:03:40;;;;;;;23.05;8.35;;;;;;;;;;5072115;28;20415;-77
2023/09/27 06:06:07;;;;;;;25.30;9.32;;;;;;;;;;5078914;28;20398;-79
2023/09/27 06:08:33;;;;;;;23.85;9.05;;;;;;;;;;5070547;28;20411;-81
2023/09/27 06:11:00;;;;;;;23.77;8.90;;;;;;;;;;5077018;28;20408;-80
2023/09/27 06:13:27;;;;;;;24.00;9.10;;;;;;;;;;5071990;28;20490;-78
2023/09/27 06:15:55;;;;;;;24.38;8.27;;;;;;;;;;5070992;28;20417;-79
2023/09/27 06:18:21;;;;;;;22.23;8.20;;;;;;;;;;5075386;28;20414;-79
2023/09/27 06:20:48;;;;;;;22.97;8.87;;;;;;;;;;5070862;28;20427;-78
2023/09/27 06:23:15;;;;;;;23.65;9.18;;;;;;;;;;5066815;28;20500;-79
2023/09/27 06:25:46;;;;;;;25.17;8.90;;;;;;;;;;5074169;28;20912;-80
2023/09/27 06:28:15;;;;;;;23.20;8.85;;;;;;;;;;5058912;28;20415;-79
2023/09/27 06:30:42;;;;;;;24.30;8.73;;;;;;;;;;5069616;28;20809;-80
2023/09/27 06:33:10;;;;;;;21.55;7.55;;;;;;;;;;5080553;28;21109;-77
2023/09/27 06:35:36;;;;;;;22.08;8.05;;;;;;;;;;5068448;28;20400;-78
2023/09/27 06:38:03;;;;;;;21.52;7.70;;;;;;;;;;5078243;28;20413;-80
2023/09/27 06:40:30;;;;;;;22.38;7.72;;;;;;;;;;5067027;28;20408;-80
2023/09/27 06:42:57;;;;;;;23.37;8.00;;;;;;;;;;5060374;28;20851;-78
2023/09/27 06:45:23;;;;;;;22.40;8.07;;;;;;;;;;5080605;28;20417;-81
2023/09/27 06:47:50;;;;;;;21.50;7.88;;;;;;;;;;5074361;28;20398;-78
2023/09/27 06:50:19;;;;;;;20.10;6.88;;;;;;;;;;5072975;28;20896;-79
2023/09/27 06:52:46;;;;;;;21.50;7.30;;;;;;;;;;5080696;28;20408;-81
2023/09/27 06:55:16;;;;;;;21.10;6.70;;;;;;;;;;5080659;28;20401;-78
2023/09/27 06:57:44;;;;;;;24.45;8.65;;;;;;;;;;5078693;28;20420;-78
2023/09/27 07:00:24;;;;;;;21.17;6.93;;;;;;;;;;5063962;28;20510;-80
2023/09/27 07:02:52;;;;;;;24.20;7.10;;;;;;;;;;5060054;28;20416;-81
2023/09/27 07:05:21;;;;;;;20.30;6.87;;;;;;;;;;5083538;28;20406;-79
2023/09/27 07:07:48;;;;;;;20.27;6.85;;;;;;;;;;5088357;28;20406;-80
2023/09/27 07:10:15;;;;;;;21.77;6.90;;;;;;;;;;5083034;28;20507;-78
2023/09/27 07:12:41;;;;;;;22.58;6.43;;;;;;;;;;5074691;28;20461;-79
2023/09/27 07:15:10;;;;;;;20.60;6.88;;;;;;;;;;5071314;28;20501;-79
2023/09/27 07:17:38;;;;;;;22.88;7.03;;;;;;;;;;5079644;28;20727;-78
2023/09/27 07:20:09;;;;;;;22.80;7.20;;;;;;;;;;5083272;28;20426;-79
2023/09/27 07:22:37;;;;;;;20.25;6.65;;;;;;;;;;5055325;28;20475;-79
2023/09/27 07:25:09;;;;;;;20.05;6.85;;;;;;;;;;5075168;28;20427;-79
2023/09/27 07:27:36;;;;;;;21.50;6.63;;;;;;;;;;5076527;28;20483;-79
2023/09/27 07:30:03;;;;;;;21.83;7.47;;;;;;;;;;5077878;28;20505;-79
2023/09/27 07:32:30;;;;;;;20.70;7.43;;;;;;;;;;5076485;28;20490;-80
2023/09/27 07:34:58;;;;;;;20.85;6.80;;;;;;;;;;5059249;28;20419;-79
2023/09/27 07:37:25;;;;;;;21.23;7.20;;;;;;;;;;5074508;28;20491;-77
2023/09/27 07:39:53;;;;;;;22.73;6.07;;;;;;;;;;5077985;28;20398;-78
2023/09/27 07:42:19;;;;;;;19.30;6.23;;;;;;;;;;5073134;28;20403;-79
2023/09/27 07:44:47;;;;;;;20.30;6.45;;;;;;;;;;5077829;28;20872;-78
2023/09/27 07:47:13;;;;;;;21.33;6.50;;;;;;;;;;5064121;28;20404;-79
2023/09/27 07:49:40;;;;;;;20.92;6.00;;;;;;;;;;5070275;28;20407;-79
2023/09/27 07:52:06;;;;;;;22.60;6.40;;;;;;;;;;5079483;28;20404;-79
2023/09/27 07:54:34;;;;;;;20.27;6.30;;;;;;;;;;5070466;28;20408;-78
2023/09/27 07:57:03;;;;;;;20.13;5.73;;;;;;;;;;5077001;28;20971;-80
2023/09/27 07:59:31;;;;;;;19.85;5.75;;;;;;;;;;5064613;28;20397;-77
2023/09/27 08:01:57;;;;;;;19.88;5.38;;;;;;;;;;5070294;28;20434;-79
2023/09/27 08:04:24;;;;;;;19.83;5.55;;;;;;;;;;5066174;28;20439;-80
2023/09/27 08:06:51;;;;;;;20.88;5.30;;;;;;;;;;5072337;28;20408;-79
2023/09/27 08:09:19;;;;;;;19.50;5.60;;;;;;;;;;5073130;28;20440;-78
2023/09/27 08:12:07;;;;;;;19.60;5.40;;;;;;;;;;5072431;28;20404;-81
2023/09/27 08:14:36;;;;;;;19.35;5.72;;;;;;;;;;5073649;28;20408;-80
2023/09/27 08:17:04;;;;;;;18.80;5.18;;;;;;;;;;5069480;28;20907;-78
2023/09/27 08:19:32;;;;;;;18.30;5.00;;;;;;;;;;5076942;28;20867;-79
2023/09/27 08:21:58;;;;;;;23.08;5.20;;;;;;;;;;5073720;28;20409;-81
2023/09/27 08:24:25;;;;;;;19.13;5.73;;;;;;;;;;5076449;28;20401;-77
2023/09/27 08:26:52;;;;;;;19.67;5.03;;;;;;;;;;5057648;28;20489;-79
2023/09/27 08:29:21;;;;;;;18.93;5.57;;;;;;;;;;5076876;28;20404;-80
2023/09/27 08:31:48;;;;;;;18.17;5.03;;;;;;;;;;5080223;28;20931;-80
2023/09/27 08:34:16;;;;;;;18.17;4.97;;;;;;;;;;5074993;28;20422;-79
2023/09/27 08:36:42;;;;;;;21.30;5.88;;;;;;;;;;5069114;28;20426;-82
2023/09/27 08:39:09;;;;;;;21.17;5.30;;;;;;;;;;5066607;28;20409;-81
2023/09/27 08:41:37;;;;;;;19.10;5.22;;;;;;;;;;5079017;28;20402;-81
2023/09/27 08:44:05;;;;;;;18.60;5.00;;;;;;;;;;5082607;28;20912;-79
2023/09/27 08:46:35;;;;;;;19.38;5.25;;;;;;;;;;5058490;28;20417;-81
2023/09/27 08:49:02;;;;;;;20.38;5.20;;;;;;;;;;5072449;28;20452;-81
2023/09/27 08:51:30;;;;;;;18.08;4.47;;;;;;;;;;5068287;28;20743;-79
2023/09/27 08:53:56;;;;;;;19.67;4.30;;;;;;;;;;5083380;28;20405;-83
2023/09/27 08:56:23;;;;;;;19.05;4.68;;;;;;;;;;5081309;28;20410;-80
2023/09/27 08:58:50;;;;;;;18.63;4.60;;;;;;;;;;5066752;28;20874;-81
2023/09/27 09:01:18;;;;;;;20.38;3.95;;;;;;;;;;5068897;28;20433;-80
2023/09/27 09:03:46;;;;;;;21.02;4.07;;;;;;;;;;5075339;28;20866;-80
2023/09/27 09:06:13;;;;;;;19.80;3.88;;;;;;;;;;5072726;28;20490;-79
2023/09/27 09:08:40;;;;;;;17.00;4.20;;;;;;;;;;5075582;28;20439;-81
2023/09/27 09:11:10;;;;;;;20.35;4.68;;;;;;;;;;5064335;28;20412;-80
2023/09/27 09:14:03;;;;;;;17.80;3.63;;;;;;;;;;5077263;28;20398;-79
2023/09/27 09:16:39;;;;;;;18.60;3.90;;;;;;;;;;5077421;28;20949;-78
2023/09/27 09:19:22;;;;;;;17.90;3.53;;;;;;;;;;5067406;28;20491;-79
2023/09/27 09:22:11;;;;;;;17.80;3.40;;;;;;;;;;5082228;28;20404;-79
2023/09/27 09:24:41;;;;;;;18.90;3.50;;;;;;;;;;5073166;28;20425;-80
2023/09/27 09:27:09;;;;;;;18.35;3.75;;;;;;;;;;5081693;28;20402;-79
2023/09/27 09:29:50;;;;;;;17.08;3.60;;;;;;;;;;5069151;28;20412;-80
2023/09/27 09:32:18;;;;;;;19.98;3.97;;;;;;;;;;5057112;28;20447;-80
2023/09/27 09:34:47;;;;;;;16.40;3.50;;;;;;;;;;5075418;28;20416;-79
2023/09/27 09:37:18;;;;;;;19.20;3.17;;;;;;;;;;5075390;28;20473;-81
2023/09/27 09:39:44;;;;;;;17.55;3.42;;;;;;;;;;5074196;28;20787;-80
2023/09/27 09:42:11;;;;;;;17.77;3.80;;;;;;;;;;5069836;28;20451;-79
2023/09/27 09:44:39;;;;;;;17.70;3.40;;;;;;;;;;5073149;28;20409;-80
2023/09/27 09:47:12;;;;;;;16.33;3.20;;;;;;;;;;5073303;28;20401;-81
2023/09/27 09:49:40;;;;;;;16.52;3.40;;;;;;;;;;5077561;28;20418;-80
2023/09/27 09:52:11;;;;;;;16.95;3.22;;;;;;;;;;5073831;28;20414;-79
2023/09/27 09:54:57;;;;;;;17.63;2.90;;;;;;;;;;5077113;28;20438;-81
2023/09/27 09:57:43;;;;;;;17.83;3.00;;;;;;;;;;5046654;28;20923;-80
2023/09/27 10:00:25;;;;;;;19.07;3.10;;;;;;;;;;5067454;28;20885;-80
2023/09/27 10:02:58;;;;;;;17.63;3.42;;;;;;;;;;5073274;28;20468;-82
2023/09/27 10:05:25;;;;;;;15.93;2.70;;;;;;;;;;5073857;28;20855;-83
2023/09/27 10:07:53;;;;;;;16.88;3.10;;;;;;;;;;5065485;28;20986;-78
2023/09/27 10:10:20;;;;;;;16.00;2.80;;;;;;;;;;5080633;28;20484;-78
2023/09/27 10:12:48;;;;;;;16.70;2.70;;;;;;;;;;5082438;28;20409;-78
2023/09/27 10:15:18;;;;;;;17.42;2.83;;;;;;;;;;5076226;28;20838;-80
2023/09/27 10:17:45;;;;;;;16.02;3.10;;;;;;;;;;5047206;28;20508;-78
2023/09/27 10:20:17;;;;;;;15.90;2.60;;;;;;;;;;5089660;28;20482;-80
2023/09/27 10:22:45;;;;;;;16.73;2.72;;;;;;;;;;5065044;28;20401;-80
2023/09/27 10:25:32;;;;;;;16.40;2.50;;;;;;;;;;5078409;28;20424;-84
2023/09/27 10:28:05;;;;;;;21.73;3.28;;;;;;;;;;5071206;28;20792;-80
2023/09/27 10:30:51;;;;;;;17.25;3.45;;;;;;;;;;5062916;28;20452;-80
2023/09/27 10:33:30;;;;;;;15.88;3.00;;;;;;;;;;5051831;28;20961;-80
2023/09/27 10:36:17;;;;;;;16.80;2.63;;;;;;;;;;5059724;28;20412;-79
2023/09/27 10:38:58;;;;;;;16.10;2.60;;;;;;;;;;5082602;28;20413;-79
2023/09/27 10:44:30;;;;;;;15.43;2.30;;;;;;;;;;5116941;27;20396;-79
2023/09/27 10:46:57;;;;;;;16.40;2.30;;;;;;;;;;5104746;28;20402;-79
2023/09/27 10:49:25;;;;;;;16.90;2.70;;;;;;;;;;5109322;28;20758;-79
2023/09/27 10:51:52;;;;;;;14.95;2.40;;;;;;;;;;5119839;28;20815;-79
2023/09/27 10:54:33;;;;;;;15.77;2.60;;;;;;;;;;5114571;28;20412;-80
2023/09/27 10:57:01;;;;;;;15.00;2.60;;;;;;;;;;5107647;28;20825;-79
2023/09/27 10:59:29;;;;;;;15.40;2.45;;;;;;;;;;5112964;28;20419;-79
2023/09/27 11:01:58;;;;;;;15.32;2.80;;;;;;;;;;5109634;28;20395;-79
2023/09/27 11:04:25;;;;;;;15.48;2.42;;;;;;;;;;5109709;28;20405;-79
2023/09/27 11:06:53;;;;;;;16.35;3.00;;;;;;;;;;5096320;28;20470;-80
2023/09/27 11:09:19;;;;;;;16.40;2.30;;;;;;;;;;5106465;28;20985;-82
2023/09/27 11:11:47;;;;;;;17.52;2.20;;;;;;;;;;5106294;28;20411;-81
2023/09/27 11:14:24;;;;;;;15.48;2.17;;;;;;;;;;5116722;28;20432;-80
2023/09/27 11:16:52;;;;;;;16.50;2.50;;;;;;;;;;5107262;28;20395;-79
2023/09/27 11:19:26;;;;;;;16.73;2.42;;;;;;;;;;5093345;28;20405;-79
2023/09/27 11:21:53;;;;;;;15.75;2.10;;;;;;;;;;5097518;28;20405;-79
2023/09/27 11:24:19;;;;;;;15.13;2.10;;;;;;;;;;5112108;27;20438;-80
2023/09/27 11:26:46;;;;;;;15.77;2.25;;;;;;;;;;5112480;28;20746;-80
2023/09/27 11:29:12;;;;;;;16.60;2.40;;;;;;;;;;5097740;28;20398;-80
2023/09/27 11:31:39;;;;;;;18.70;2.30;;;;;;;;;;5107581;28;20485;-79
2023/09/27 11:34:11;;;;;;;18.00;2.67;;;;;;;;;;5105362;28;20411;-79
2023/09/27 11:36:39;;;;;;;15.27;2.20;;;;;;;;;;5109015;28;20873;-78
2023/09/27 11:39:06;;;;;;;15.40;2.40;;;;;;;;;;5108039;28;20552;-79
2023/09/27 11:41:32;;;;;;;15.50;2.20;;;;;;;;;;5108718;28;20412;-79
2023/09/27 11:43:59;;;;;;;14.80;2.40;;;;;;;;;;5106895;28;20426;-78
2023/09/27 11:46:31;;;;;;;15.02;2.03;;;;;;;;;;5099457;28;20413;-80
2023/09/27 11:49:06;;;;;;;16.53;2.40;;;;;;;;;;5111628;28;20848;-78
2023/09/27 11:51:35;;;;;;;15.63;2.40;;;;;;;;;;5090765;28;20407;-81
2023/09/27 11:54:02;;;;;;;17.90;2.20;;;;;;;;;;5117748;28;20412;-80
2023/09/27 11:56:33;;;;;;;15.00;1.90;;;;;;;;;;5082975;28;20973;-79
2023/09/27 11:59:01;;;;;;;15.00;1.90;;;;;;;;;;5084997;28;20407;-79
2023/09/27 12:01:29;;;;;;;16.00;2.50;;;;;;;;;;5088728;28;20421;-80
2023/09/27 12:03:55;;;;;;;14.90;2.00;;;;;;;;;;5103200;28;20547;-80
2023/09/27 12:06:24;;;;;;;17.27;2.40;;;;;;;;;;5083012;28;20437;-79
2023/09/27 12:08:54;;;;;;;16.45;2.40;;;;;;;;;;5075797;28;20447;-79
2023/09/27 12:11:23;;;;;;;16.02;2.20;;;;;;;;;;5090307;28;20426;-80
2023/09/27 12:13:50;;;;;;;16.42;2.33;;;;;;;;;;5093780;28;20745;-78
2023/09/27 12:16:20;;;;;;;16.10;1.90;;;;;;;;;;5100127;28;20405;-77
2023/09/27 12:18:47;;;;;;;14.80;2.17;;;;;;;;;;5084655;28;20938;-77
2023/09/27 12:21:14;;;;;;;14.88;1.75;;;;;;;;;;5087805;28;20487;-77
2023/09/27 12:23:41;;;;;;;16.48;2.80;;;;;;;;;;5095526;28;20461;-80
2023/09/27 12:26:09;;;;;;;14.70;2.00;;;;;;;;;;5099029;28;20520;-80
2023/09/27 12:28:37;;;;;;;14.97;1.90;;;;;;;;;;5082133;28;20457;-79
2023/09/27 12:31:06;;;;;;;17.00;2.10;;;;;;;;;;5090667;28;20765;-80
2023/09/27 12:33:35;;;;;;;17.42;2.20;;;;;;;;;;5094029;28;20491;-79
2023/09/27 12:36:02;;;;;;;15.00;2.30;;;;;;;;;;5096797;28;20415;-76
2023/09/27 12:38:28;;;;;;;15.40;2.10;;;;;;;;;;5084430;28;20489;-80
2023/09/27 12:40:55;;;;;;;15.50;2.28;;;;;;;;;;5101943;28;20424;-80
2023/09/27 12:43:23;;;;;;;16.27;2.40;;;;;;;;;;5087888;28;20426;-77
2023/09/27 12:45:50;;;;;;;14.95;2.08;;;;;;;;;;5102934;28;20411;-79
2023/09/27 12:48:16;;;;;;;15.10;2.20;;;;;;;;;;5102959;28;20491;-79
2023/09/27 12:50:45;;;;;;;14.93;2.17;;;;;;;;;;5094927;28;20422;-80
2023/09/27 12:53:12;;;;;;;15.00;2.00;;;;;;;;;;5100318;28;20418;-80
2023/09/27 12:55:42;;;;;;;15.90;2.60;;;;;;;;;;5093215;28;20432;-80
2023/09/27 12:58:08;;;;;;;15.00;2.30;;;;;;;;;;5089478;28;20474;-76
2023/09/27 13:00:38;;;;;;;14.40;1.70;;;;;;;;;;5093554;28;20415;-78
2023/09/27 13:03:05;;;;;;;15.20;2.10;;;;;;;;;;5089145;28;20421;-79
2023/09/27 13:05:34;;;;;;;15.13;2.03;;;;;;;;;;5101293;28;20402;-83
2023/09/27 13:08:00;;;;;;;14.60;1.88;;;;;;;;;;5091166;28;20433;-81
2023/09/27 13:10:27;;;;;;;15.80;2.20;;;;;;;;;;5099095;28;20397;-79
2023/09/27 13:12:54;;;;;;;14.73;2.10;;;;;;;;;;5096301;28;20402;-78
2023/09/27 13:15:20;;;;;;;14.70;2.30;;;;;;;;;;5089083;28;20406;-78
2023/09/27 13:17:48;;;;;;;14.73;1.83;;;;;;;;;;5087788;28;20951;-78
2023/09/27 13:20:15;;;;;;;18.10;2.30;;;;;;;;;;5093873;28;20401;-79
2023/09/27 13:22:42;;;;;;;14.85;2.00;;;;;;;;;;5091276;28;20424;-79
2023/09/27 13:25:11;;;;;;;16.20;1.90;;;;;;;;;;5097420;28;20431;-79
2023/09/27 13:27:39;;;;;;;14.90;1.98;;;;;;;;;;5088247;28;20424;-81
2023/09/27 13:30:06;;;;;;;15.10;2.10;;;;;;;;;;5090429;28;20416;-78
2023/09/27 13:32:36;;;;;;;14.40;1.80;;;;;;;;;;5094692;28;20414;-78
2023/09/27 13:35:06;;;;;;;15.20;2.65;;;;;;;;;;5076620;28;20441;-76
2023/09/27 13:37:32;;;;;;;14.63;1.80;;;;;;;;;;5091582;28;20428;-78
2023/09/27 13:39:59;;;;;;;15.10;2.00;;;;;;;;;;5100204;28;20396;-78
2023/09/27 13:42:26;;;;;;;14.25;1.70;;;;;;;;;;5091661;28;20409;-77
2023/09/27 13:44:53;;;;;;;15.10;2.20;;;;;;;;;;5093216;28;20420;-77
2023/09/27 13:47:20;;;;;;;15.27;2.08;;;;;;;;;;5086432;27;20871;-78
2023/09/27 13:49:46;;;;;;;15.30;2.00;;;;;;;;;;5099828;28;20909;-81
2023/09/27 13:52:14;;;;;;;15.35;1.92;;;;;;;;;;5092387;28;20418;-80
2023/09/27 13:54:41;;;;;;;15.25;1.90;;;;;;;;;;5096480;28;20498;-79
2023/09/27 13:57:08;;;;;;;15.68;2.00;;;;;;;;;;5094166;28;20401;-78
2023/09/27 13:59:38;;;;;;;15.07;2.00;;;;;;;;;;5097291;28;20404;-78
2023/09/27 14:02:06;;;;;;;14.90;2.00;;;;;;;;;;5083450;28;20904;-78
2023/09/27 14:04:32;;;;;;;17.15;2.17;;;;;;;;;;5106544;27;20447;-77
2023/09/27 14:07:00;;;;;;;15.45;2.20;;;;;;;;;;5093858;28;20519;-79
2023/09/27 14:09:28;;;;;;;15.67;2.00;;;;;;;;;;5083786;28;20397;-80
2023/09/27 14:11:55;;;;;;;15.30;2.05;;;;;;;;;;5094298;28;20503;-79
2023/09/27 14:14:21;;;;;;;16.07;2.10;;;;;;;;;;5106253;28;20402;-80
2023/09/27 14:16:48;;;;;;;14.20;1.80;;;;;;;;;;5094368;28;20895;-80
2023/09/27 14:19:16;;;;;;;14.85;2.30;;;;;;;;;;5082091;28;20495;-80
2023/09/27 14:21:43;;;;;;;15.07;2.10;;;;;;;;;;5091888;28;20504;-79
2023/09/27 14:24:10;;;;;;;14.50;2.05;;;;;;;;;;5099567;28;20416;-79
2023/09/27 14:26:38;;;;;;;14.85;1.83;;;;;;;;;;5095715;27;20501;-80
2023/09/27 14:29:05;;;;;;;14.70;2.20;;;;;;;;;;5089490;28;20444;-79
2023/09/27 14:31:32;;;;;;;14.50;1.90;;;;;;;;;;5092856;28;20437;-79
2023/09/27 14:33:59;;;;;;;15.27;1.90;;;;;;;;;;5077822;28;20410;-78
2023/09/27 14:36:28;;;;;;;14.52;1.90;;;;;;;;;;5096639;28;20402;-78
2023/09/27 14:38:58;;;;;;;15.00;2.10;;;;;;;;;;5096462;28;20421;-80